createdAt,value
2023-05-02T00:02:21.721Z,2.00
2023-05-02T00:04:48.855Z,2.00
2023-05-02T00:07:16.383Z,2.50
2023-05-02T00:09:43.616Z,2.17
2023-05-02T00:12:11.141Z,2.03
2023-05-02T00:14:38.610Z,2.37
2023-05-02T00:17:06.189Z,2.80
2023-05-02T00:19:38.410Z,2.13
2023-05-02T00:22:05.909Z,2.40
2023-05-02T00:24:33.358Z,2.73
2023-05-02T00:27:01.068Z,2.53
2023-05-02T00:29:28.176Z,2.33
2023-05-02T00:31:55.870Z,2.80
2023-05-02T00:34:23.818Z,2.87
2023-05-02T00:36:51.367Z,2.83
2023-05-02T00:39:18.818Z,3.27
2023-05-02T00:41:46.288Z,2.13
2023-05-02T00:44:13.908Z,3.10
2023-05-02T00:46:41.481Z,2.77
2023-05-02T00:49:08.563Z,2.80
2023-05-02T00:51:36.147Z,2.67
2023-05-02T00:54:04.106Z,1.83
2023-05-02T00:56:31.157Z,2.40
2023-05-02T00:58:59.430Z,2.13
2023-05-02T01:02:16.498Z,2.40
2023-05-02T01:05:21.165Z,2.07
2023-05-02T01:08:15.135Z,2.10
2023-05-02T01:10:50.193Z,2.23
2023-05-02T01:13:20.655Z,2.67
2023-05-02T01:15:52.052Z,2.10
2023-05-02T01:18:24.963Z,2.80
2023-05-02T01:21:11.590Z,2.13
2023-05-02T01:23:39.352Z,1.90
2023-05-02T01:26:29.637Z,3.07
2023-05-02T01:29:01.468Z,2.47
2023-05-02T01:31:46.448Z,2.03
2023-05-02T01:34:13.821Z,2.50
2023-05-02T01:36:47.082Z,2.10
2023-05-02T01:39:20.478Z,2.37
2023-05-02T01:41:52.192Z,2.20
2023-05-02T01:44:22.907Z,2.00
2023-05-02T01:46:53.086Z,2.30
2023-05-02T01:49:23.542Z,2.50
2023-05-02T01:51:52.481Z,1.97
2023-05-02T01:54:23.953Z,1.93
2023-05-02T01:56:52.218Z,2.00
2023-05-02T01:59:24.004Z,1.87
2023-05-02T02:01:53.770Z,2.33
2023-05-02T02:04:23.799Z,2.27
2023-05-02T02:07:01.008Z,1.63
2023-05-02T02:09:28.566Z,2.03
2023-05-02T02:12:32.270Z,1.83
2023-05-02T02:15:28.072Z,2.13
2023-05-02T02:18:11.075Z,1.40
2023-05-02T02:20:43.100Z,2.30
2023-05-02T02:23:13.540Z,1.90
2023-05-02T02:25:41.301Z,2.57
2023-05-02T02:28:09.238Z,1.93
2023-05-02T02:30:36.898Z,2.90
2023-05-02T02:33:04.575Z,2.27
2023-05-02T02:35:53.858Z,1.87
2023-05-02T02:38:48.392Z,1.97
2023-05-02T02:41:27.478Z,2.00
2023-05-02T02:44:35.130Z,1.70
2023-05-02T02:47:37.824Z,2.70
2023-05-02T02:50:23.239Z,2.33
2023-05-02T02:53:10.076Z,3.50
2023-05-02T02:55:57.997Z,2.30
2023-05-02T02:58:53.336Z,2.53
2023-05-02T03:01:24.526Z,1.90
2023-05-02T03:03:54.866Z,1.90
2023-05-02T03:06:22.750Z,2.80
2023-05-02T03:08:51.963Z,2.20
2023-05-02T03:11:22.159Z,2.37
2023-05-02T03:13:49.705Z,3.77
2023-05-02T03:16:32.664Z,2.50
2023-05-02T03:19:01.023Z,1.93
2023-05-02T03:21:31.600Z,2.60
2023-05-02T03:24:04.805Z,2.43
2023-05-02T03:26:32.458Z,3.00
2023-05-02T03:29:00.737Z,2.50
2023-05-02T03:31:33.815Z,2.47
2023-05-02T03:34:01.759Z,1.90
2023-05-02T03:36:29.203Z,2.80
2023-05-02T03:38:56.365Z,2.17
2023-05-02T03:41:24.909Z,3.00
2023-05-02T03:43:59.433Z,1.80
2023-05-02T03:46:28.349Z,2.60
2023-05-02T03:48:58.592Z,3.30
2023-05-02T03:51:26.934Z,2.30
2023-05-02T03:53:57.232Z,2.17
2023-05-02T03:56:24.696Z,2.13
2023-05-02T03:59:02.770Z,2.33
2023-05-02T04:01:30.475Z,2.40
2023-05-02T04:03:59.493Z,2.23
2023-05-02T04:06:30.421Z,2.77
2023-05-02T04:09:01.440Z,1.90
2023-05-02T04:11:35.845Z,2.60
2023-05-02T04:14:05.176Z,3.23
2023-05-02T04:16:33.255Z,2.30
2023-05-02T04:19:01.373Z,1.80
2023-05-02T04:21:29.171Z,3.00
2023-05-02T04:23:56.311Z,2.40
2023-05-02T04:26:23.761Z,3.40
2023-05-02T04:28:57.777Z,2.53
2023-05-02T04:31:25.424Z,2.40
2023-05-02T04:33:53.126Z,2.30
2023-05-02T04:36:26.211Z,2.33
2023-05-02T04:38:53.703Z,2.43
2023-05-02T04:41:21.623Z,3.37
2023-05-02T04:43:54.894Z,1.80
2023-05-02T04:46:22.477Z,2.87
2023-05-02T04:48:49.578Z,3.03
2023-05-02T04:51:17.198Z,3.40
2023-05-02T04:53:47.980Z,2.30
2023-05-02T04:56:15.292Z,4.43
2023-05-02T04:58:42.893Z,2.10
2023-05-02T05:01:11.202Z,3.07
2023-05-02T05:03:38.460Z,4.73
2023-05-02T05:06:07.425Z,4.20
2023-05-02T05:08:35.148Z,5.27
2023-05-02T05:11:05.199Z,3.93
2023-05-02T05:13:33.400Z,4.23
2023-05-02T05:16:00.982Z,3.67
2023-05-02T05:18:32.563Z,3.23
2023-05-02T05:20:59.769Z,3.53
2023-05-02T05:23:27.083Z,3.57
2023-05-02T05:25:54.842Z,3.93
2023-05-02T05:28:21.952Z,3.60
2023-05-02T05:30:50.112Z,4.40
2023-05-02T05:33:21.208Z,3.03
2023-05-02T05:35:49.344Z,4.27
2023-05-02T05:38:16.813Z,6.70
2023-05-02T05:40:49.253Z,6.57
2023-05-02T05:43:16.771Z,6.23
2023-05-02T05:45:43.902Z,4.40
2023-05-02T05:48:11.069Z,4.33
2023-05-02T05:50:43.176Z,3.83
2023-05-02T05:53:10.735Z,5.10
2023-05-02T05:55:42.186Z,2.90
2023-05-02T05:58:10.250Z,5.63
2023-05-02T06:00:39.784Z,4.07
2023-05-02T06:03:09.632Z,3.73
2023-05-02T06:05:37.893Z,3.33
2023-05-02T06:08:05.537Z,4.10
2023-05-02T06:10:32.921Z,3.50
2023-05-02T06:13:00.768Z,3.73
2023-05-02T06:15:35.295Z,3.20
2023-05-02T06:18:04.668Z,4.07
2023-05-02T06:20:32.149Z,4.83
2023-05-02T06:23:00.088Z,3.40
2023-05-02T06:25:27.181Z,3.83
2023-05-02T06:27:54.664Z,4.00
2023-05-02T06:30:22.117Z,2.80
2023-05-02T06:32:49.627Z,3.53
2023-05-02T06:35:17.134Z,4.47
2023-05-02T06:37:44.594Z,4.30
2023-05-02T06:40:13.632Z,3.50
2023-05-02T06:42:41.104Z,3.27
2023-05-02T06:45:08.612Z,2.70
2023-05-02T06:47:36.086Z,4.77
2023-05-02T06:50:04.023Z,3.70
2023-05-02T06:52:31.592Z,2.23
2023-05-02T06:54:59.192Z,3.80
2023-05-02T06:57:26.761Z,3.30
2023-05-02T06:59:54.199Z,3.43
2023-05-02T07:02:22.363Z,4.40
2023-05-02T07:04:49.940Z,3.60
2023-05-02T07:07:19.063Z,4.87
2023-05-02T07:09:46.569Z,4.67
2023-05-02T07:12:14.086Z,3.83
2023-05-02T07:14:41.576Z,4.07
2023-05-02T07:17:10.120Z,5.30
2023-05-02T07:19:37.371Z,4.93
2023-05-02T07:22:04.913Z,4.00
2023-05-02T07:24:32.368Z,4.93
2023-05-02T07:26:59.814Z,4.83
2023-05-02T07:29:27.387Z,3.80
2023-05-02T07:31:54.893Z,4.60
2023-05-02T07:34:22.567Z,4.90
2023-05-02T07:36:50.149Z,4.37
2023-05-02T07:39:17.745Z,5.33
2023-05-02T07:41:44.816Z,4.97
2023-05-02T07:44:12.753Z,5.73
2023-05-02T07:46:40.403Z,7.13
2023-05-02T07:49:08.040Z,6.10
2023-05-02T07:51:35.571Z,6.63
2023-05-02T07:54:03.082Z,3.70
2023-05-02T07:56:30.941Z,5.03
2023-05-02T07:58:58.398Z,4.93
2023-05-02T08:01:26.114Z,4.67
2023-05-02T08:03:53.721Z,4.70
2023-05-02T08:06:21.026Z,5.50
2023-05-02T08:08:48.468Z,5.27
2023-05-02T08:11:16.360Z,5.40
2023-05-02T08:13:43.781Z,4.97
2023-05-02T08:16:11.427Z,5.10
2023-05-02T08:18:38.914Z,5.33
2023-05-02T08:21:06.474Z,7.50
2023-05-02T08:23:33.962Z,7.23
2023-05-02T08:26:01.438Z,7.93
2023-05-02T08:28:28.988Z,8.90
2023-05-02T08:30:56.780Z,11.40
2023-05-02T08:33:24.140Z,9.70
2023-05-02T08:35:51.699Z,6.60
2023-05-02T08:38:19.348Z,8.50
2023-05-02T08:40:46.610Z,9.00
2023-05-02T08:43:16.414Z,11.17
2023-05-02T08:45:45.557Z,9.00
2023-05-02T08:48:15.085Z,8.37
2023-05-02T08:50:45.625Z,10.40
2023-05-02T08:53:14.727Z,8.37
2023-05-02T08:55:42.965Z,9.10
2023-05-02T08:58:12.415Z,8.30
2023-05-02T09:00:42.876Z,7.83
2023-05-02T09:03:11.617Z,8.53
2023-05-02T09:05:42.691Z,8.20
2023-05-02T09:08:10.334Z,8.37
2023-05-02T09:10:39.428Z,8.53
2023-05-02T09:13:36.924Z,8.17
2023-05-02T09:16:07.989Z,7.23
2023-05-02T09:18:56.721Z,6.60
2023-05-02T09:21:40.110Z,7.57
2023-05-02T09:24:22.463Z,8.80
2023-05-02T09:27:03.038Z,7.70
2023-05-02T09:29:38.032Z,6.50
2023-05-02T09:32:06.888Z,6.60
2023-05-02T09:34:34.891Z,6.70
2023-05-02T09:37:04.109Z,7.73
2023-05-02T09:39:31.577Z,7.53
2023-05-02T09:41:59.972Z,7.17
2023-05-02T09:44:37.642Z,6.67
2023-05-02T09:47:06.764Z,5.50
2023-05-02T09:49:46.801Z,5.50
2023-05-02T09:52:17.290Z,6.23
2023-05-02T09:54:46.877Z,6.73
2023-05-02T09:57:14.346Z,6.73
2023-05-02T09:59:41.766Z,5.80
2023-05-02T10:02:12.029Z,6.40
2023-05-02T10:04:40.630Z,5.10
2023-05-02T10:07:10.593Z,5.70
2023-05-02T10:09:45.531Z,6.63
2023-05-02T10:12:16.874Z,5.80
2023-05-02T10:14:54.038Z,5.20
2023-05-02T10:17:31.084Z,4.67
2023-05-02T10:20:04.882Z,6.10
2023-05-02T10:22:35.342Z,4.57
2023-05-02T10:25:04.342Z,6.60
2023-05-02T10:27:33.376Z,5.70
2023-05-02T10:30:04.281Z,4.90
2023-05-02T10:32:34.865Z,6.60
2023-05-02T10:35:07.902Z,5.63
2023-05-02T10:37:38.453Z,6.53
2023-05-02T10:40:10.328Z,5.97
2023-05-02T10:42:47.968Z,5.47
2023-05-02T10:45:35.882Z,4.30
2023-05-02T10:48:25.418Z,5.47
2023-05-02T10:50:57.605Z,4.60
2023-05-02T10:53:36.934Z,3.93
2023-05-02T10:56:16.682Z,3.70
2023-05-02T10:58:46.471Z,4.53
2023-05-02T11:01:28.685Z,4.07
2023-05-02T11:04:04.930Z,3.60
2023-05-02T11:06:55.716Z,5.87
2023-05-02T11:09:22.744Z,4.53
2023-05-02T11:11:52.606Z,4.07
2023-05-02T11:14:25.970Z,6.83
2023-05-02T11:17:01.805Z,4.50
2023-05-02T11:19:31.737Z,4.83
2023-05-02T11:22:20.741Z,4.93
2023-05-02T11:24:49.561Z,5.23
2023-05-02T11:27:38.251Z,4.90
2023-05-02T11:30:09.795Z,4.43
2023-05-02T11:32:46.811Z,4.07
2023-05-02T11:35:27.425Z,3.20
2023-05-02T11:37:58.936Z,2.97
2023-05-02T11:40:27.629Z,4.07
2023-05-02T11:42:56.494Z,2.77
2023-05-02T11:45:34.158Z,3.70
2023-05-02T11:48:01.353Z,3.07
2023-05-02T11:50:30.383Z,2.87
2023-05-02T11:52:57.496Z,3.20
2023-05-02T11:55:24.918Z,2.17
2023-05-02T11:57:52.154Z,2.27
2023-05-02T12:00:19.731Z,3.27
2023-05-02T12:02:48.969Z,2.17
2023-05-02T12:05:28.563Z,2.00
2023-05-02T12:07:55.720Z,2.60
2023-05-02T12:10:22.961Z,2.37
2023-05-02T12:12:51.007Z,2.30
2023-05-02T12:15:18.810Z,3.07
2023-05-02T12:17:49.434Z,2.73
2023-05-02T12:20:18.084Z,2.23
2023-05-02T12:22:45.657Z,2.13
2023-05-02T12:25:12.901Z,1.90
2023-05-02T12:27:40.020Z,1.50
2023-05-02T12:30:08.770Z,1.60
2023-05-02T12:32:37.202Z,1.60
2023-05-02T12:35:05.141Z,1.60
2023-05-02T12:37:32.234Z,1.00
2023-05-02T12:39:59.826Z,1.40
2023-05-02T12:42:28.409Z,1.43
2023-05-02T12:44:57.006Z,1.40
2023-05-02T12:47:24.994Z,1.90
2023-05-02T12:49:57.492Z,1.63
2023-05-02T12:52:54.954Z,1.40
2023-05-02T12:55:32.066Z,1.57
2023-05-02T12:58:13.380Z,1.60
2023-05-02T13:00:44.804Z,2.10
2023-05-02T13:03:13.434Z,1.63
2023-05-02T13:05:40.849Z,1.43
2023-05-02T13:08:08.007Z,1.60
2023-05-02T13:10:35.391Z,1.23
2023-05-02T13:13:02.846Z,1.23
2023-05-02T13:15:30.181Z,0.93
2023-05-02T13:17:57.390Z,0.90
2023-05-02T13:20:24.610Z,1.70
2023-05-02T13:22:51.701Z,1.13
2023-05-02T13:25:18.811Z,1.33
2023-05-02T13:27:46.242Z,1.00
2023-05-02T13:30:14.466Z,1.10
2023-05-02T13:32:41.725Z,1.03
2023-05-02T13:35:13.805Z,1.13
2023-05-02T13:37:41.693Z,0.90
2023-05-02T13:40:09.361Z,0.83
2023-05-02T13:42:36.672Z,1.80
2023-05-02T13:45:06.511Z,1.50
2023-05-02T13:47:33.726Z,1.80
2023-05-02T13:50:00.955Z,1.47
2023-05-02T13:52:28.165Z,1.03
2023-05-02T13:54:55.296Z,1.57
2023-05-02T13:57:22.472Z,1.30
2023-05-02T13:59:49.593Z,1.00
2023-05-02T14:02:17.494Z,1.10
2023-05-02T14:04:44.646Z,1.10
2023-05-02T14:07:11.745Z,1.03
2023-05-02T14:09:39.113Z,1.03
2023-05-02T14:12:06.525Z,1.53
2023-05-02T14:14:33.677Z,1.10
2023-05-02T14:17:02.738Z,1.10
2023-05-02T14:19:29.893Z,0.63
2023-05-02T14:21:56.983Z,0.70
2023-05-02T14:24:24.160Z,0.80
2023-05-02T14:26:51.319Z,0.80
2023-05-02T14:29:19.892Z,0.97
2023-05-02T14:31:47.301Z,1.33
2023-05-02T14:34:14.483Z,0.90
2023-05-02T14:36:41.622Z,1.10
2023-05-02T14:39:08.689Z,1.03
2023-05-02T14:41:36.438Z,1.30
2023-05-02T14:44:03.897Z,1.73
2023-05-02T14:46:31.032Z,1.70
2023-05-02T14:48:58.204Z,0.70
2023-05-02T14:51:25.327Z,1.00
2023-05-02T14:53:52.593Z,1.50
2023-05-02T14:56:20.342Z,1.20
2023-05-02T14:58:47.591Z,1.73
2023-05-02T15:01:22.666Z,1.50
2023-05-02T15:04:05.192Z,1.00
2023-05-02T15:06:35.560Z,1.13
2023-05-02T15:09:03.270Z,1.10
2023-05-02T15:11:30.787Z,1.10
2023-05-02T15:13:59.470Z,1.43
2023-05-02T15:16:27.356Z,1.00
2023-05-02T15:18:55.040Z,1.13
2023-05-02T15:21:23.082Z,1.60
2023-05-02T15:23:50.262Z,1.40
2023-05-02T15:26:17.704Z,1.53
2023-05-02T15:28:44.807Z,0.93
2023-05-02T15:31:11.996Z,1.23
2023-05-02T15:33:39.122Z,1.70
2023-05-02T15:36:06.705Z,1.70
2023-05-02T15:38:42.306Z,1.20
2023-05-02T15:41:13.902Z,1.53
2023-05-02T15:43:41.065Z,1.17
2023-05-02T15:46:08.253Z,1.07
2023-05-02T15:48:35.479Z,1.30
2023-05-02T15:51:03.159Z,1.60
2023-05-02T15:53:30.554Z,1.50
2023-05-02T15:55:57.670Z,1.60
2023-05-02T15:58:24.748Z,1.80
2023-05-02T16:00:52.645Z,2.20
2023-05-02T16:03:19.990Z,2.40
2023-05-02T16:05:47.257Z,1.80
2023-05-02T16:08:14.414Z,1.73
2023-05-02T16:10:43.489Z,1.60
2023-05-02T16:13:11.058Z,2.30
2023-05-02T16:15:39.485Z,1.97
2023-05-02T16:18:06.737Z,1.70
2023-05-02T16:20:36.965Z,3.23
2023-05-02T16:23:04.634Z,2.20
2023-05-02T16:25:32.724Z,2.17
2023-05-02T16:28:01.178Z,2.20
2023-05-02T16:30:28.565Z,2.60
2023-05-02T16:32:55.800Z,2.07
2023-05-02T16:35:22.976Z,2.10
2023-05-02T16:37:50.106Z,2.70
2023-05-02T16:40:17.408Z,2.43
2023-05-02T16:42:44.507Z,2.73
2023-05-02T16:45:11.711Z,2.00
2023-05-02T16:47:38.837Z,2.23
2023-05-02T16:50:06.957Z,2.33
2023-05-02T16:52:36.610Z,2.43
2023-05-02T16:55:04.742Z,2.43
2023-05-02T16:57:31.863Z,2.17
2023-05-02T16:59:59.246Z,2.40
2023-05-02T17:02:26.740Z,3.77
2023-05-02T17:04:54.096Z,2.40
2023-05-02T17:07:21.171Z,2.67
2023-05-02T17:09:48.275Z,2.90
2023-05-02T17:12:18.732Z,2.60
2023-05-02T17:14:46.170Z,4.07
2023-05-02T17:17:13.239Z,2.70
2023-05-02T17:19:42.878Z,2.83
2023-05-02T17:22:10.243Z,2.30
2023-05-02T17:24:37.380Z,2.30
2023-05-02T17:27:04.566Z,1.70
2023-05-02T17:29:32.621Z,2.83
2023-05-02T17:32:02.806Z,2.20
2023-05-02T17:34:30.525Z,1.43
2023-05-02T17:36:57.658Z,3.03
2023-05-02T17:39:24.781Z,2.63
2023-05-02T17:41:51.929Z,2.57
2023-05-02T17:44:19.042Z,2.60
2023-05-02T17:46:46.732Z,2.10
2023-05-02T17:49:13.993Z,2.03
2023-05-02T17:51:41.082Z,2.37
2023-05-02T17:54:08.237Z,1.80
2023-05-02T17:56:36.862Z,1.57
2023-05-02T17:59:06.966Z,1.50
2023-05-02T18:01:34.198Z,1.93
2023-05-02T18:04:04.097Z,3.60
2023-05-02T18:06:34.504Z,2.80
2023-05-02T18:09:01.789Z,2.10
2023-05-02T18:11:38.608Z,2.97
2023-05-02T18:14:06.345Z,2.23
2023-05-02T18:16:36.309Z,1.83
2023-05-02T18:19:03.690Z,2.43
2023-05-02T18:21:34.806Z,3.40
2023-05-02T18:24:01.944Z,2.20
2023-05-02T18:26:29.065Z,2.47
2023-05-02T18:28:56.227Z,1.90
2023-05-02T18:31:23.945Z,2.73
2023-05-02T18:33:54.318Z,3.47
2023-05-02T18:36:29.431Z,3.50
2023-05-02T18:38:57.337Z,2.80
2023-05-02T18:41:24.879Z,2.53
2023-05-02T18:43:53.284Z,2.60
2023-05-02T18:46:21.188Z,2.43
2023-05-02T18:48:48.918Z,4.57
2023-05-02T18:51:16.231Z,2.23
2023-05-02T18:53:43.819Z,4.03
2023-05-02T18:56:14.894Z,3.00
2023-05-02T18:58:43.104Z,3.37
2023-05-02T19:01:16.221Z,4.27
2023-05-02T19:03:44.377Z,2.67
2023-05-02T19:06:12.885Z,2.27
2023-05-02T19:08:40.528Z,2.00
2023-05-02T19:11:09.211Z,3.17
2023-05-02T19:13:36.916Z,2.50
2023-05-02T19:16:04.639Z,3.30
2023-05-02T19:18:32.167Z,3.07
2023-05-02T19:20:59.987Z,2.20
2023-05-02T19:23:27.480Z,2.60
2023-05-02T19:25:55.075Z,2.47
2023-05-02T19:28:22.984Z,2.47
2023-05-02T19:30:51.430Z,3.80
2023-05-02T19:33:18.607Z,2.87
2023-05-02T19:35:47.794Z,2.70
2023-05-02T19:38:15.416Z,2.13
2023-05-02T19:40:42.898Z,2.37
2023-05-02T19:43:10.029Z,3.47
2023-05-02T19:45:37.725Z,2.67
2023-05-02T19:48:05.257Z,3.00
2023-05-02T19:50:33.432Z,3.20
2023-05-02T19:53:02.066Z,2.13
2023-05-02T19:55:29.530Z,3.20
2023-05-02T19:57:57.129Z,2.37
2023-05-02T20:00:24.350Z,3.20
2023-05-02T20:02:52.325Z,1.97
2023-05-02T20:05:19.974Z,2.30
2023-05-02T20:07:47.585Z,2.00
2023-05-02T20:10:15.384Z,3.37
2023-05-02T20:12:44.878Z,2.23
2023-05-02T20:15:16.874Z,2.27
2023-05-02T20:17:44.486Z,1.33
2023-05-02T20:20:12.318Z,2.83
2023-05-02T20:22:40.622Z,2.73
2023-05-02T20:25:11.515Z,2.13
2023-05-02T20:27:39.291Z,1.87
2023-05-02T20:30:09.948Z,1.77
2023-05-02T20:32:37.384Z,2.27
2023-05-02T20:35:05.193Z,4.00
2023-05-02T20:37:32.326Z,2.83
2023-05-02T20:39:59.949Z,3.00
2023-05-02T20:42:27.956Z,2.60
2023-05-02T20:45:00.397Z,2.37
2023-05-02T20:47:30.446Z,2.40
2023-05-02T20:49:58.612Z,2.00
2023-05-02T20:52:26.083Z,2.67
2023-05-02T20:54:57.085Z,2.30
2023-05-02T20:57:24.654Z,2.60
2023-05-02T20:59:52.179Z,2.00
2023-05-02T21:02:19.679Z,2.23
2023-05-02T21:04:47.135Z,1.90
2023-05-02T21:07:14.577Z,4.17
2023-05-02T21:09:42.032Z,2.90
2023-05-02T21:12:09.491Z,2.03
2023-05-02T21:14:36.582Z,1.77
2023-05-02T21:17:03.693Z,1.60
2023-05-02T21:19:33.204Z,1.90
2023-05-02T21:22:00.704Z,2.30
2023-05-02T21:24:27.750Z,2.83
2023-05-02T21:26:55.182Z,1.50
2023-05-02T21:29:22.267Z,2.23
2023-05-02T21:31:50.485Z,2.03
2023-05-02T21:34:18.883Z,2.37
2023-05-02T21:36:46.003Z,2.03
2023-05-02T21:39:13.179Z,2.10
2023-05-02T21:41:40.754Z,2.47
2023-05-02T21:44:11.600Z,1.90
2023-05-02T21:46:39.126Z,1.97
2023-05-02T21:49:07.657Z,2.50
2023-05-02T21:51:34.878Z,3.53
2023-05-02T21:54:02.343Z,1.90
2023-05-02T21:56:29.976Z,1.50
2023-05-02T21:58:57.596Z,3.00
2023-05-02T22:01:25.333Z,1.40
2023-05-02T22:03:52.841Z,2.20
2023-05-02T22:06:20.400Z,4.03
2023-05-02T22:08:47.911Z,1.83
2023-05-02T22:11:16.043Z,1.77
2023-05-02T22:13:43.569Z,1.50
2023-05-02T22:16:11.166Z,3.57
2023-05-02T22:18:38.631Z,2.57
2023-05-02T22:21:08.212Z,2.80
2023-05-02T22:23:36.101Z,2.53
2023-05-02T22:26:03.687Z,2.77
2023-05-02T22:28:30.770Z,2.63
2023-05-02T22:30:58.280Z,2.47
2023-05-02T22:33:25.421Z,3.30
2023-05-02T22:35:52.860Z,1.40
2023-05-02T22:38:20.774Z,1.77
2023-05-02T22:40:48.807Z,2.57
2023-05-02T22:43:16.942Z,2.30
2023-05-02T22:45:44.381Z,2.07
2023-05-02T22:48:12.115Z,3.73
2023-05-02T22:50:40.170Z,2.53
2023-05-02T22:53:09.502Z,1.53
2023-05-02T22:55:38.684Z,3.00
2023-05-02T22:58:06.232Z,1.87
2023-05-02T23:00:33.858Z,3.23
2023-05-02T23:03:01.540Z,2.20
2023-05-02T23:05:29.700Z,2.40
2023-05-02T23:07:57.811Z,2.50
2023-05-02T23:10:25.373Z,4.23
2023-05-02T23:12:52.793Z,2.67
2023-05-02T23:15:20.098Z,2.77
2023-05-02T23:17:47.638Z,3.33
2023-05-02T23:20:19.508Z,3.73
2023-05-02T23:22:47.283Z,2.20
2023-05-02T23:25:15.331Z,2.33
2023-05-02T23:27:42.890Z,3.37
2023-05-02T23:30:10.555Z,3.73
2023-05-02T23:32:38.429Z,2.03
2023-05-02T23:35:06.504Z,2.70
2023-05-02T23:37:34.151Z,2.80
2023-05-02T23:40:02.041Z,3.20
2023-05-02T23:42:30.349Z,2.80
2023-05-02T23:44:58.022Z,4.23
2023-05-02T23:47:28.864Z,2.20
2023-05-02T23:49:56.499Z,2.50
2023-05-02T23:52:24.064Z,4.20
2023-05-02T23:54:52.674Z,2.20
2023-05-02T23:57:20.122Z,2.70
2023-05-02T23:59:47.206Z,3.67
